Time;durP1;ratioP1;P1;durP2;ratioP2;P2;SDS_P1;SDS_P2;PMS_P1;PMS_P2;Temp;Humidity;BMP_temperature;BMP_pressure;BME280_temperature;BME280_humidity;BME280_pressure;Samples;Min_cycle;Max_cycle;Signal;HPM_P1;HPM_P2
2023/06/03 00:01:04;;;;;;;15.10;7.25;;;;;;;15.41;61.00;101987.47;6216022;23;20008;-88
2023/06/03 00:03:31;;;;;;;11.02;7.07;;;;;;;15.38;61.41;101982.25;6243670;23;20488;-90
2023/06/03 00:05:58;;;;;;;16.23;7.50;;;;;;;15.39;61.29;101991.97;6240051;23;20006;-89
2023/06/03 00:08:23;;;;;;;15.27;7.53;;;;;;;15.32;61.71;101981.56;6241473;23;20069;-89
2023/06/03 00:10:48;;;;;;;15.05;7.35;;;;;;;15.34;61.42;101981.53;6241774;23;20412;-88
2023/06/03 00:13:13;;;;;;;13.20;6.75;;;;;;;15.36;61.21;101992.13;6241726;23;20083;-89
2023/06/03 00:15:39;;;;;;;12.43;7.32;;;;;;;15.22;62.17;101987.34;6238673;23;20054;-89
2023/06/03 00:18:05;;;;;;;14.20;7.25;;;;;;;15.06;62.15;101968.44;6241355;23;20008;-89
2023/06/03 00:20:36;;;;;;;16.02;7.43;;;;;;;15.12;62.08;101981.53;6240795;23;19996;-89
2023/06/03 00:23:03;;;;;;;11.82;7.32;;;;;;;14.97;62.64;101987.50;6215340;23;20012;-89
2023/06/03 00:25:30;;;;;;;13.68;7.70;;;;;;;14.80;63.36;101999.69;6215020;23;20347;-89
2023/06/03 00:27:55;;;;;;;12.57;7.18;;;;;;;14.66;63.47;101995.81;6242703;23;20427;-89
2023/06/03 00:30:21;;;;;;;19.30;7.68;;;;;;;14.50;63.79;101984.88;6242198;23;20031;-89
2023/06/03 00:32:46;;;;;;;13.00;7.05;;;;;;;14.51;63.08;101982.19;6242618;23;20312;-89
2023/06/03 00:35:13;;;;;;;18.35;7.03;;;;;;;14.70;62.77;101985.00;6241561;23;20069;-89
2023/06/03 00:37:38;;;;;;;13.05;7.78;;;;;;;14.73;62.82;101982.19;6214470;23;20016;-89
2023/06/03 00:40:04;;;;;;;13.57;7.00;;;;;;;14.75;63.07;101980.34;6242742;23;20000;-88
2023/06/03 00:42:29;;;;;;;16.58;6.72;;;;;;;14.82;62.18;101980.09;6242364;23;20042;-89
2023/06/03 00:44:55;;;;;;;12.75;6.70;;;;;;;14.79;62.56;101978.44;6241392;23;20000;-89
2023/06/03 00:47:20;;;;;;;14.35;7.57;;;;;;;14.78;62.64;101987.34;6241478;23;20000;-89
2023/06/03 00:49:46;;;;;;;17.58;7.85;;;;;;;14.76;62.02;101981.22;6214114;23;20036;-88
2023/06/03 00:52:13;;;;;;;12.10;7.05;;;;;;;14.83;62.36;101982.72;6214733;23;20008;-89
2023/06/03 00:54:40;;;;;;;13.73;7.18;;;;;;;14.86;61.72;101989.72;6241401;23;20556;-89
2023/06/03 00:57:06;;;;;;;9.15;7.05;;;;;;;14.80;62.18;101990.81;6241534;23;20031;-88
2023/06/03 00:59:32;;;;;;;11.32;6.60;;;;;;;14.66;62.13;101988.69;6210951;23;20503;-88
2023/06/03 01:01:58;;;;;;;14.75;7.38;;;;;;;14.62;62.00;101975.56;6211579;23;20087;-89
2023/06/03 01:04:25;;;;;;;9.30;6.65;;;;;;;14.66;61.96;101985.16;6241674;23;20027;-88
2023/06/03 01:07:26;;;;;;;14.43;7.05;;;;;;;14.75;60.91;101987.47;6210583;23;19999;-89
2023/06/03 01:10:00;;;;;;;10.73;6.47;;;;;;;14.66;61.72;101990.50;6240544;23;20004;-89
2023/06/03 01:12:47;;;;;;;11.13;6.55;;;;;;;14.66;61.50;101990.50;6239488;23;20018;-89
2023/06/03 01:15:19;;;;;;;11.40;7.15;;;;;;;14.56;62.11;101984.66;6239308;23;20434;-89
2023/06/03 01:17:47;;;;;;;11.43;6.45;;;;;;;14.61;62.04;101992.47;6239412;23;20099;-89
2023/06/03 01:20:14;;;;;;;9.55;6.28;;;;;;;14.57;61.62;101989.06;6241481;23;19996;-89
2023/06/03 01:22:42;;;;;;;10.88;6.65;;;;;;;14.57;62.09;101990.84;6240661;23;20058;-89
2023/06/03 01:25:15;;;;;;;9.73;6.47;;;;;;;14.56;61.59;101991.78;6239784;23;20012;-89
2023/06/03 01:27:41;;;;;;;13.48;6.72;;;;;;;14.61;61.22;101985.34;6213267;23;20475;-88
2023/06/03 01:30:10;;;;;;;14.55;6.60;;;;;;;14.61;61.42;101988.00;6239172;23;20106;-89
2023/06/03 01:32:37;;;;;;;13.50;6.90;;;;;;;14.63;61.45;101986.16;6213542;23;20466;-89
2023/06/03 01:35:06;;;;;;;13.07;6.93;;;;;;;14.53;62.06;101987.44;6240551;23;20408;-89
2023/06/03 01:37:32;;;;;;;10.73;6.03;;;;;;;14.47;61.39;101974.34;6240149;23;20012;-89
2023/06/03 01:40:00;;;;;;;11.07;6.30;;;;;;;14.59;61.93;101997.84;6239612;23;20378;-89
2023/06/03 01:42:26;;;;;;;9.07;5.57;;;;;;;14.56;61.25;101984.66;6241823;23;20027;-88
2023/06/03 01:44:52;;;;;;;10.25;6.03;;;;;;;14.52;61.59;101985.72;6237379;23;20004;-89
2023/06/03 01:47:18;;;;;;;8.40;6.20;;;;;;;14.52;61.19;101993.69;6237356;23;20411;-89
2023/06/03 01:49:44;;;;;;;11.75;6.53;;;;;;;14.40;61.25;101984.31;6237948;23;20008;-89
2023/06/03 01:52:09;;;;;;;16.80;7.18;;;;;;;14.26;62.23;101982.19;6212791;23;20106;-89
2023/06/03 01:54:35;;;;;;;9.18;6.10;;;;;;;14.32;61.89;101989.09;6240781;23;20011;-89
2023/06/03 01:57:02;;;;;;;10.77;5.75;;;;;;;14.34;61.47;101989.88;6238294;23;20516;-89
2023/06/03 01:59:27;;;;;;;9.98;6.47;;;;;;;14.35;61.82;101985.44;6240247;23;19996;-89
2023/06/03 02:01:54;;;;;;;9.23;6.32;;;;;;;14.42;61.50;102003.78;6236911;23;20075;-89
2023/06/03 02:04:20;;;;;;;11.30;6.57;;;;;;;14.39;61.35;101987.06;6239603;23;20000;-89
2023/06/03 02:06:49;;;;;;;9.68;5.95;;;;;;;14.34;61.47;101986.38;6240661;23;20008;-89
2023/06/03 02:09:14;;;;;;;10.05;6.40;;;;;;;14.32;61.63;101982.91;6239834;23;20000;-89
2023/06/03 02:11:44;;;;;;;8.98;6.03;;;;;;;14.32;61.82;101988.22;6239052;23;20007;-89
2023/06/03 02:14:11;;;;;;;11.10;5.80;;;;;;;14.21;61.50;101981.50;6240215;23;20054;-89
2023/06/03 02:16:37;;;;;;;11.20;5.88;;;;;;;14.21;61.52;101980.63;6211906;23;20008;-89
2023/06/03 02:19:11;;;;;;;8.40;6.07;;;;;;;14.13;61.73;101988.91;6238487;23;20099;-89
2023/06/03 02:21:38;;;;;;;9.57;6.22;;;;;;;14.02;62.53;101985.75;6241207;23;20628;-88
2023/06/03 02:24:05;;;;;;;10.25;6.30;;;;;;;13.92;62.60;101969.28;6214560;23;20004;-89
2023/06/03 02:26:30;;;;;;;13.88;6.65;;;;;;;13.92;62.90;101987.88;6241427;23;20011;-89
2023/06/03 02:28:56;;;;;;;10.57;6.30;;;;;;;13.88;62.67;101982.72;6240223;23;20004;-88
2023/06/03 02:31:22;;;;;;;8.55;5.82;;;;;;;13.86;63.14;101977.47;6241864;23;20004;-89
2023/06/03 02:33:47;;;;;;;11.07;6.32;;;;;;;13.77;63.34;101968.03;6240670;23;20004;-89
2023/06/03 02:36:14;;;;;;;9.98;6.50;;;;;;;13.85;63.03;101974.84;6240118;23;20420;-89
2023/06/03 02:38:40;;;;;;;13.20;5.80;;;;;;;13.87;63.02;101991.63;6240227;23;20846;-89
2023/06/03 02:41:05;;;;;;;10.13;6.57;;;;;;;13.74;63.77;101973.44;6241859;23;20004;-89
2023/06/03 02:43:30;;;;;;;8.32;6.30;;;;;;;13.75;63.74;101971.66;6239750;23;20031;-89
2023/06/03 02:45:55;;;;;;;8.02;6.25;;;;;;;13.85;63.38;101985.47;6212439;23;20062;-89
2023/06/03 02:48:21;;;;;;;10.45;5.78;;;;;;;13.84;63.20;101978.44;6240247;23;19999;-89
2023/06/03 02:50:46;;;;;;;12.20;6.20;;;;;;;13.81;62.86;101976.78;6238174;23;20051;-89
2023/06/03 02:53:11;;;;;;;10.68;6.50;;;;;;;13.70;64.08;101976.25;6240492;23;20547;-89
2023/06/03 02:55:37;;;;;;;11.38;6.57;;;;;;;13.72;63.79;101987.72;6239550;23;20011;-89
2023/06/03 02:58:02;;;;;;;8.48;5.55;;;;;;;13.70;63.67;101978.91;6212690;23;20086;-89
2023/06/03 03:00:27;;;;;;;8.10;6.47;;;;;;;13.74;63.84;101986.72;6239636;23;20027;-89
2023/06/03 03:02:53;;;;;;;9.23;6.30;;;;;;;13.69;64.47;101986.03;6214011;23;20192;-89
2023/06/03 03:05:19;;;;;;;9.18;6.35;;;;;;;13.71;63.66;101980.69;6239081;23;20412;-90
2023/06/03 03:07:46;;;;;;;8.55;6.25;;;;;;;13.73;63.98;101984.13;6241268;23;20027;-89
2023/06/03 03:10:11;;;;;;;8.88;5.88;;;;;;;13.70;63.55;101977.13;6213562;23;20428;-89
2023/06/03 03:12:36;;;;;;;6.72;5.88;;;;;;;13.73;63.77;101977.03;6240404;23;20000;-89
2023/06/03 03:15:01;;;;;;;9.75;5.68;;;;;;;13.76;63.61;101979.59;6239823;23;20412;-89
2023/06/03 03:17:27;;;;;;;10.48;6.25;;;;;;;13.75;63.78;101990.25;6238968;23;20007;-89
2023/06/03 03:19:52;;;;;;;8.70;5.80;;;;;;;13.65;63.78;101976.41;6238223;23;20419;-89
2023/06/03 03:22:17;;;;;;;13.98;6.35;;;;;;;13.64;63.50;101977.34;6212163;23;20011;-89
2023/06/03 03:24:43;;;;;;;9.00;6.13;;;;;;;13.57;64.23;101978.50;6240327;23;20030;-89
2023/06/03 03:27:08;;;;;;;9.07;5.75;;;;;;;13.56;63.81;101984.72;6240608;23;20031;-89
2023/06/03 03:29:34;;;;;;;9.75;5.97;;;;;;;13.54;63.82;101994.53;6239878;23;20001;-89
2023/06/03 03:32:07;;;;;;;8.70;5.53;;;;;;;13.59;63.23;101994.38;6214072;23;20012;-89
2023/06/03 03:34:36;;;;;;;9.27;6.55;;;;;;;13.47;64.06;101985.88;6242432;23;20327;-89
2023/06/03 03:37:02;;;;;;;9.32;5.72;;;;;;;13.50;64.11;101992.91;6242112;23;20432;-89
2023/06/03 03:39:28;;;;;;;12.52;6.07;;;;;;;13.45;64.23;101986.88;6241556;23;20372;-89
2023/06/03 03:41:53;;;;;;;9.88;6.32;;;;;;;13.47;63.67;101993.00;6243209;23;20011;-89
2023/06/03 03:44:18;;;;;;;6.80;5.63;;;;;;;13.53;63.90;102001.63;6242678;23;20010;-89
2023/06/03 03:46:51;;;;;;;8.55;5.75;;;;;;;13.58;63.28;101997.97;6241809;23;20004;-89
2023/06/03 03:49:26;;;;;;;10.40;5.78;;;;;;;13.51;63.92;101997.28;6241514;23;20004;-89
2023/06/03 03:51:52;;;;;;;9.05;6.00;;;;;;;13.51;63.79;102000.81;6213333;23;20009;-89
2023/06/03 03:54:22;;;;;;;10.73;6.40;;;;;;;13.57;64.14;102002.41;6214835;23;20387;-89
2023/06/03 03:56:47;;;;;;;8.32;5.85;;;;;;;13.52;63.67;101993.69;6241960;23;20011;-89
2023/06/03 03:59:16;;;;;;;8.15;5.28;;;;;;;13.48;63.75;101992.97;6242440;23;20004;-89
2023/06/03 04:01:43;;;;;;;9.68;5.60;;;;;;;13.56;63.20;101999.78;6213382;23;20451;-89
2023/06/03 04:04:10;;;;;;;7.13;5.20;;;;;;;13.64;63.48;102005.72;6242536;23;20011;-89
2023/06/03 04:06:38;;;;;;;10.63;5.53;;;;;;;13.69;63.28;102009.94;6213549;23;20008;-89
2023/06/03 04:09:10;;;;;;;13.32;6.20;;;;;;;13.68;63.79;101996.72;6240938;23;20049;-89
2023/06/03 04:11:36;;;;;;;;;;;;;;;13.90;62.09;102010.13;6211578;23;20007;-89
2023/06/03 04:14:03;;;;;;;10.63;5.50;;;;;;;13.69;62.86;101986.03;6241646;23;19909;-89
2023/06/03 04:16:49;;;;;;;8.57;5.88;;;;;;;13.78;63.21;102009.63;6212541;23;20077;-89
2023/06/03 04:19:36;;;;;;;6.97;5.57;;;;;;;13.75;63.28;102007.06;6212757;23;20008;-89
2023/06/03 04:22:04;;;;;;;9.63;5.90;;;;;;;13.65;63.38;102004.78;6215083;23;20083;-89
2023/06/03 04:24:30;;;;;;;9.52;5.50;;;;;;;13.70;63.28;102000.19;6215393;23;20378;-89
2023/06/03 04:26:56;;;;;;;8.95;5.45;;;;;;;13.69;63.68;102007.28;6241295;23;20004;-89
2023/06/03 04:29:22;;;;;;;7.15;5.63;;;;;;;13.77;63.80;102010.56;6242287;23;20087;-89
2023/06/03 04:31:47;;;;;;;7.72;5.45;;;;;;;13.73;62.95;102006.25;6240968;23;20003;-90
2023/06/03 04:34:12;;;;;;;8.18;5.57;;;;;;;13.74;63.52;102007.13;6242453;23;20004;-89
2023/06/03 04:36:38;;;;;;;9.30;5.25;;;;;;;13.80;63.03;102004.25;6240531;23;20071;-89
2023/06/03 04:39:08;;;;;;;8.55;5.22;;;;;;;13.78;63.09;101999.00;6214832;23;20016;-89
2023/06/03 04:41:37;;;;;;;9.88;5.65;;;;;;;13.88;63.03;102017.28;6241617;23;20000;-90
2023/06/03 04:44:03;;;;;;;8.70;5.60;;;;;;;13.93;63.43;102020.66;6214452;23;20102;-89
2023/06/03 04:46:31;;;;;;;8.02;5.40;;;;;;;13.98;62.50;102019.56;6214264;23;20557;-89
2023/06/03 04:48:59;;;;;;;12.00;5.40;;;;;;;13.96;62.58;102009.91;6241594;23;20000;-89
2023/06/03 04:51:27;;;;;;;7.40;5.25;;;;;;;13.94;62.08;102007.31;6214130;23;20004;-89
2023/06/03 04:53:54;;;;;;;7.38;4.95;;;;;;;14.06;61.70;102021.94;6242663;23;20008;-89
2023/06/03 04:56:19;;;;;;;8.32;4.88;;;;;;;14.09;61.70;102021.00;6213446;23;20015;-89
2023/06/03 04:58:44;;;;;;;5.93;5.03;;;;;;;14.15;61.89;102021.63;6212822;23;20031;-89
2023/06/03 05:01:10;;;;;;;6.72;5.32;;;;;;;14.16;60.94;102023.34;6238216;23;20316;-89
2023/06/03 05:03:38;;;;;;;9.23;5.45;;;;;;;14.16;60.89;102007.41;6238394;23;20331;-89
2023/06/03 05:06:08;;;;;;;9.07;5.15;;;;;;;14.26;61.09;102027.41;6238673;23;20379;-89
2023/06/03 05:08:34;;;;;;;7.13;5.28;;;;;;;14.22;60.75;102016.94;6239201;23;20423;-89
2023/06/03 05:11:00;;;;;;;7.18;5.80;;;;;;;14.28;60.20;102024.72;6237537;23;20374;-89
2023/06/03 05:13:25;;;;;;;10.77;5.13;;;;;;;14.28;59.28;102014.06;6238748;23;20089;-90
2023/06/03 05:15:50;;;;;;;7.57;5.28;;;;;;;14.33;60.00;102013.91;6238437;23;20003;-89
2023/06/03 05:18:16;;;;;;;10.10;5.00;;;;;;;14.43;59.76;102016.16;6210996;23;20015;-89
2023/06/03 05:20:41;;;;;;;7.80;5.10;;;;;;;14.52;60.02;102022.97;6241651;23;20000;-88
2023/06/03 05:23:06;;;;;;;11.95;5.00;;;;;;;14.58;59.41;102024.50;6215524;23;20115;-88
2023/06/03 05:25:31;;;;;;;8.15;4.90;;;;;;;14.57;58.95;102018.31;6213182;23;20086;-89
2023/06/03 05:27:57;;;;;;;6.47;4.70;;;;;;;14.66;57.61;102033.09;6214506;23;20058;-89
2023/06/03 05:30:22;;;;;;;6.57;4.65;;;;;;;14.61;58.34;102017.28;6241366;23;20674;-89
2023/06/03 05:32:47;;;;;;;9.15;5.20;;;;;;;14.67;58.65;102022.38;6240920;23;20011;-89
2023/06/03 05:35:12;;;;;;;7.57;4.40;;;;;;;14.65;58.70;102020.72;6240504;23;20039;-89
2023/06/03 05:37:38;;;;;;;7.25;4.35;;;;;;;14.69;57.65;102023.19;6241368;23;20347;-89
2023/06/03 05:40:04;;;;;;;8.00;4.03;;;;;;;14.80;57.40;102026.28;6240346;23;20327;-88
2023/06/03 05:42:29;;;;;;;8.98;4.30;;;;;;;14.72;57.16;102009.75;6242103;23;20015;-89
2023/06/03 05:44:55;;;;;;;4.90;4.30;;;;;;;14.86;57.88;102019.84;6241559;23;20429;-89
2023/06/03 05:47:20;;;;;;;12.57;4.82;;;;;;;14.93;56.55;102015.19;6215089;23;20431;-88
2023/06/03 05:49:45;;;;;;;6.70;4.25;;;;;;;15.02;56.12;102020.13;6240453;23;20030;-89
2023/06/03 05:52:10;;;;;;;4.80;3.65;;;;;;;15.04;55.94;102020.94;6238906;23;20062;-89
2023/06/03 05:54:36;;;;;;;7.05;3.80;;;;;;;15.05;55.78;102012.00;6238452;23;20000;-89
2023/06/03 05:57:01;;;;;;;6.95;4.40;;;;;;;15.10;56.09;102004.69;6238689;23;20327;-89
2023/06/03 05:59:26;;;;;;;6.47;4.20;;;;;;;15.21;55.30;102021.13;6240749;23;20050;-89
2023/06/03 06:01:51;;;;;;;6.10;3.83;;;;;;;15.25;55.71;102014.75;6213758;23;20075;-89
2023/06/03 06:04:17;;;;;;;9.80;4.43;;;;;;;15.27;54.81;102012.88;6239784;23;20008;-89
2023/06/03 06:06:42;;;;;;;7.40;4.50;;;;;;;15.35;55.47;102017.91;6239496;23;20000;-89
2023/06/03 06:09:08;;;;;;;6.63;3.92;;;;;;;15.44;55.71;102017.53;6240017;23;20454;-89
2023/06/03 06:11:33;;;;;;;4.75;4.03;;;;;;;15.55;54.44;102023.25;6214463;23;20050;-88
2023/06/03 06:13:59;;;;;;;4.38;3.60;;;;;;;15.64;54.16;102019.38;6242067;23;20435;-88
2023/06/03 06:16:24;;;;;;;4.60;4.00;;;;;;;15.79;54.05;102032.03;6239146;23;20008;-88
2023/06/03 06:18:49;;;;;;;5.20;4.13;;;;;;;15.90;55.93;102020.03;6238288;23;20000;-88
2023/06/03 06:21:16;;;;;;;6.88;3.85;;;;;;;16.02;53.40;102017.72;6214496;23;20000;-88
2023/06/03 06:23:42;;;;;;;4.45;3.35;;;;;;;16.13;53.62;102022.56;6241647;23;20459;-90
2023/06/03 06:26:08;;;;;;;5.93;4.03;;;;;;;16.29;52.29;102022.75;6214251;23;20046;-89
2023/06/03 06:28:33;;;;;;;5.55;3.42;;;;;;;16.44;53.85;102024.72;6214944;23;20004;-89
2023/06/03 06:31:02;;;;;;;7.65;3.60;;;;;;;16.66;51.58;102031.75;6241943;23;20427;-89
2023/06/03 06:33:28;;;;;;;6.07;3.50;;;;;;;16.90;49.07;102029.75;6241626;23;20027;-88
2023/06/03 06:35:53;;;;;;;6.03;3.28;;;;;;;17.21;49.78;102046.06;6214687;23;20439;-89
2023/06/03 06:38:19;;;;;;;4.00;3.00;;;;;;;17.31;48.79;102031.28;6213877;23;20440;-90
2023/06/03 06:40:45;;;;;;;5.38;3.35;;;;;;;17.43;47.91;102012.91;6240257;23;20000;-89
2023/06/03 06:43:16;;;;;;;6.85;3.50;;;;;;;17.76;48.34;102040.63;6213042;23;20086;-89
2023/06/03 06:45:41;;;;;;;8.15;3.47;;;;;;;17.89;46.90;102034.66;6241182;23;20046;-89
2023/06/03 06:48:08;;;;;;;7.40;3.95;;;;;;;18.08;46.36;102040.78;6239462;23;20461;-89
2023/06/03 06:50:40;;;;;;;6.55;3.40;;;;;;;18.11;47.09;102037.94;6213747;23;20440;-90
2023/06/03 06:53:06;;;;;;;3.55;2.85;;;;;;;18.19;47.02;102029.53;6241448;23;20011;-90
2023/06/03 06:55:41;;;;;;;4.15;3.08;;;;;;;18.23;47.05;102033.75;6214118;23;20432;-90
2023/06/03 06:58:10;;;;;;;6.80;3.00;;;;;;;18.27;48.13;102035.31;6240168;23;20090;-90
2023/06/03 07:00:36;;;;;;;6.25;3.03;;;;;;;18.51;45.23;102030.44;6214110;23;20036;-89
2023/06/03 07:03:01;;;;;;;5.05;3.28;;;;;;;18.83;45.23;102037.59;6213283;23;20008;-90
2023/06/03 07:05:26;;;;;;;4.45;2.80;;;;;;;18.99;44.49;102034.94;6240933;23;20015;-90
2023/06/03 07:07:52;;;;;;;11.35;2.80;;;;;;;19.13;42.71;102030.63;6211063;23;20003;-90
2023/06/03 07:10:20;;;;;;;5.22;2.92;;;;;;;19.28;46.40;102043.13;6239480;23;20078;-90
2023/06/03 07:12:47;;;;;;;7.68;2.63;;;;;;;19.16;45.04;102027.75;6238642;23;20023;-89
2023/06/03 07:15:12;;;;;;;9.23;2.72;;;;;;;19.47;43.64;102024.16;6239209;23;20016;-89
2023/06/03 07:17:39;;;;;;;5.47;2.85;;;;;;;19.74;42.39;102027.06;6238416;23;20431;-90
2023/06/03 07:20:06;;;;;;;4.50;2.50;;;;;;;19.83;39.10;102023.84;6211384;23;20424;-89
2023/06/03 07:22:32;;;;;;;3.45;2.35;;;;;;;19.99;43.14;102013.88;6239881;23;20000;-90
2023/06/03 07:24:58;;;;;;;4.97;2.33;;;;;;;20.00;42.83;102009.38;6237488;23;20008;-90
2023/06/03 07:27:28;;;;;;;4.85;2.30;;;;;;;20.45;39.35;102021.78;6236581;23;20423;-90
2023/06/03 07:29:57;;;;;;;3.97;2.38;;;;;;;21.00;39.33;102029.03;6240273;23;20026;-89
2023/06/03 07:32:24;;;;;;;5.85;2.58;;;;;;;21.69;37.27;102037.06;6242098;23;20058;-90
2023/06/03 07:34:50;;;;;;;4.10;2.15;;;;;;;22.29;35.35;102037.38;6238962;23;20313;-89
2023/06/03 07:37:17;;;;;;;3.22;2.28;;;;;;;22.68;35.22;102030.09;6211846;23;20028;-90
2023/06/03 07:39:43;;;;;;;6.20;2.45;;;;;;;23.26;35.96;102028.50;6243139;23;20288;-90
2023/06/03 07:42:21;;;;;;;2.95;2.25;;;;;;;23.87;33.30;102021.16;6243740;23;20062;-90
2023/06/03 07:44:48;;;;;;;4.88;2.03;;;;;;;24.45;31.60;102025.72;6240989;23;20011;-90
2023/06/03 07:47:15;;;;;;;6.82;2.25;;;;;;;24.80;30.14;102018.28;6213151;23;20000;-90
2023/06/03 07:49:45;;;;;;;2.70;1.88;;;;;;;25.22;30.59;102023.88;6244660;23;20001;-90
2023/06/03 07:52:16;;;;;;;2.90;2.08;;;;;;;25.44;29.94;102033.78;6218355;23;20027;-90
2023/06/03 07:54:41;;;;;;;5.50;2.20;;;;;;;25.79;28.83;102033.53;6214929;23;20007;-90
2023/06/03 07:57:07;;;;;;;4.85;2.60;;;;;;;26.00;28.24;102019.97;6238693;23;20236;-89
2023/06/03 07:59:32;;;;;;;9.35;2.08;;;;;;;26.22;26.26;102037.94;6241527;23;20007;-91
2023/06/03 08:01:58;;;;;;;3.97;1.55;;;;;;;26.53;26.17;102037.94;6214217;23;20008;-87
2023/06/03 08:04:29;;;;;;;70.47;6.95;;;;;;;26.79;26.21;102039.19;6213399;23;20007;-88
2023/06/03 08:06:56;;;;;;;109.67;9.67;;;;;;;27.23;25.97;102031.59;6240985;23;20023;-88
2023/06/03 08:09:26;;;;;;;5.50;2.00;;;;;;;27.44;26.83;102045.06;6239022;23;20031;-88
2023/06/03 08:11:51;;;;;;;3.90;1.60;;;;;;;27.89;24.72;102034.50;6214886;23;20503;-89
2023/06/03 08:14:20;;;;;;;3.58;1.70;;;;;;;28.09;24.50;102029.84;6238303;23;20039;-89
2023/06/03 08:16:46;;;;;;;5.32;1.90;;;;;;;28.25;23.09;102029.22;6241776;23;20327;-91
2023/06/03 08:19:13;;;;;;;4.30;1.35;;;;;;;28.18;24.00;102022.69;6218952;23;20000;-91
2023/06/03 08:21:39;;;;;;;3.67;1.60;;;;;;;28.52;23.62;102031.16;6244810;23;20511;-91
2023/06/03 08:24:05;;;;;;;7.30;1.60;;;;;;;28.70;22.64;102023.06;6216592;23;20057;-91
2023/06/03 08:26:30;;;;;;;4.13;1.90;;;;;;;28.69;20.93;102032.25;6242782;23;20081;-91
2023/06/03 08:28:56;;;;;;;4.90;1.58;;;;;;;28.50;22.67;102025.03;6243150;23;20004;-91
2023/06/03 08:31:21;;;;;;;3.55;1.60;;;;;;;28.59;22.32;102021.41;6243695;23;20650;-91
2023/06/03 08:33:46;;;;;;;2.78;1.27;;;;;;;29.13;23.52;102024.25;6246101;23;20004;-91
2023/06/03 08:36:12;;;;;;;4.00;1.50;;;;;;;29.38;21.09;102031.69;6215709;23;20047;-91
2023/06/03 08:38:39;;;;;;;3.67;1.42;;;;;;;29.12;22.49;102020.69;6241605;23;20295;-91
2023/06/03 08:41:05;;;;;;;7.47;1.50;;;;;;;28.90;21.00;102029.25;6216032;23;20432;-91
2023/06/03 08:43:42;;;;;;;3.80;1.48;;;;;;;28.73;21.16;102020.06;6243439;23;20000;-91
2023/06/03 08:46:31;;;;;;;6.85;1.52;;;;;;;29.04;22.50;102030.63;6217946;23;20007;-90
2023/06/03 08:49:01;;;;;;;3.67;1.40;;;;;;;29.02;22.02;102024.50;6241860;23;20015;-89
2023/06/03 08:51:26;;;;;;;1.70;1.60;;;;;;;29.10;20.34;102013.66;6243421;23;20008;-90
2023/06/03 08:53:52;;;;;;;3.30;2.00;;;;;;;29.20;22.13;102020.78;6215427;23;20030;-89
2023/06/03 08:56:22;;;;;;;2.90;1.45;;;;;;;29.05;22.62;102010.53;6240609;23;20011;-92
2023/06/03 08:59:03;;;;;;;4.55;1.42;;;;;;;28.93;23.63;102018.06;6243677;23;20574;-90
2023/06/03 09:01:36;;;;;;;5.38;1.45;;;;;;;28.78;23.96;102015.00;6245654;23;20000;-92
2023/06/03 09:04:03;;;;;;;4.40;1.15;;;;;;;28.51;22.41;102009.56;6216222;23;20023;-91
2023/06/03 09:06:29;;;;;;;9.93;1.77;;;;;;;28.07;21.11;102015.56;6242567;23;20034;-92
2023/06/03 09:08:57;;;;;;;3.08;1.35;;;;;;;27.43;21.87;102027.91;6242633;23;20000;-92
2023/06/03 09:11:23;;;;;;;4.50;1.10;;;;;;;27.21;23.80;102028.19;6242614;23;20004;-92
2023/06/03 09:13:51;;;;;;;3.15;1.38;;;;;;;27.61;24.02;102010.91;6239378;23;20007;-92
2023/06/03 09:16:18;;;;;;;3.90;1.42;;;;;;;28.07;22.17;102015.56;6241138;23;20065;-92
2023/06/03 09:18:44;;;;;;;5.65;1.25;;;;;;;27.45;23.96;102012.31;6214826;23;20067;-91
2023/06/03 09:21:12;;;;;;;3.88;1.30;;;;;;;27.52;24.23;102011.75;6215161;23;20427;-91
2023/06/03 09:23:39;;;;;;;5.53;1.42;;;;;;;27.59;21.75;102015.59;6215340;23;20500;-93
2023/06/03 09:26:05;;;;;;;3.50;1.42;;;;;;;27.50;21.26;102017.31;6215419;23;20014;-92
2023/06/03 09:28:33;;;;;;;2.13;1.27;;;;;;;27.67;21.49;102018.47;6214113;23;20008;-91
2023/06/03 09:30:59;;;;;;;4.65;1.40;;;;;;;27.83;22.19;102004.28;6213010;23;20008;-92
2023/06/03 09:33:25;;;;;;;6.18;1.50;;;;;;;27.99;21.18;102020.03;6242891;23;20019;-93
2023/06/03 09:36:11;;;;;;;6.88;1.30;;;;;;;27.95;21.64;102014.88;6214346;23;20416;-93
2023/06/03 09:38:54;;;;;;;8.45;1.60;;;;;;;27.87;22.04;102013.88;6243134;23;20095;-92
2023/06/03 09:41:26;;;;;;;3.35;1.17;;;;;;;28.15;20.56;102017.53;6242673;23;20675;-92
2023/06/03 09:43:52;;;;;;;2.90;1.20;;;;;;;28.02;19.14;102011.56;6240951;23;20471;-92
2023/06/03 09:46:18;;;;;;;4.05;1.13;;;;;;;27.90;17.92;102009.00;6241845;23;20011;-92
2023/06/03 09:48:44;;;;;;;5.43;1.30;;;;;;;27.83;19.82;102007.88;6242549;23;20004;-92
2023/06/03 09:51:09;;;;;;;4.22;1.08;;;;;;;27.94;20.51;102002.28;6243484;23;20088;-91
2023/06/03 09:53:35;;;;;;;6.17;1.20;;;;;;;28.21;20.60;102012.38;6241700;23;20003;-92
2023/06/03 09:56:20;;;;;;;2.85;1.17;;;;;;;28.23;22.11;102015.78;6241670;23;20314;-91
2023/06/03 09:58:46;;;;;;;3.53;1.30;;;;;;;28.09;18.86;102012.69;6214122;23;20238;-92
2023/06/03 10:01:11;;;;;;;3.03;1.10;;;;;;;28.00;19.65;102013.56;6243488;23;19996;-92
2023/06/03 10:03:37;;;;;;;2.45;1.10;;;;;;;28.03;20.00;102024.16;6241675;23;20431;-92
2023/06/03 10:06:17;;;;;;;5.80;1.25;;;;;;;28.38;20.97;102018.06;6239263;23;20431;-92
2023/06/03 10:08:43;;;;;;;2.88;1.42;;;;;;;28.19;18.52;102019.81;6213884;23;20087;-92
2023/06/03 10:11:10;;;;;;;2.17;0.93;;;;;;;28.46;18.38;102027.19;6211464;23;20543;-93
2023/06/03 10:13:35;;;;;;;5.50;1.30;;;;;;;28.86;18.92;102011.50;6239414;23;20031;-92
2023/06/03 10:16:02;;;;;;;5.45;1.10;;;;;;;29.36;17.09;102014.59;6240801;23;20036;-92
2023/06/03 10:18:38;;;;;;;4.93;1.35;;;;;;;29.58;18.05;102010.59;6238427;23;20231;-92
2023/06/03 10:21:09;;;;;;;0.82;0.77;;;;;;;29.81;18.72;102010.94;6238563;23;20435;-92
2023/06/03 10:23:37;;;;;;;7.07;1.50;;;;;;;29.76;19.87;102016.03;6213938;23;20091;-92
2023/06/03 10:26:04;;;;;;;2.80;0.88;;;;;;;29.77;17.97;102017.72;6239309;23;20010;-92
2023/06/03 10:28:30;;;;;;;4.57;1.10;;;;;;;29.68;17.27;102013.22;6210922;23;20000;-92
2023/06/03 10:30:57;;;;;;;1.45;1.35;;;;;;;29.84;16.92;101999.69;6212082;23;20015;-93
2023/06/03 10:33:23;;;;;;;5.10;1.00;;;;;;;30.08;17.71;102009.06;6213215;23;20019;-93
2023/06/03 10:35:49;;;;;;;2.55;0.80;;;;;;;30.24;18.21;102004.59;6212707;23;20431;-92
2023/06/03 10:38:15;;;;;;;1.90;0.90;;;;;;;30.26;16.93;102009.03;6212069;23;20015;-93
2023/06/03 10:40:41;;;;;;;1.08;0.80;;;;;;;30.27;19.75;102008.88;6239354;23;20008;-92
2023/06/03 10:43:09;;;;;;;3.38;1.08;;;;;;;30.61;17.05;102006.13;6239644;23;20044;-93
2023/06/03 10:45:35;;;;;;;2.47;1.00;;;;;;;30.61;17.80;102002.53;6239151;23;20090;-93
2023/06/03 10:48:09;;;;;;;1.60;0.90;;;;;;;30.68;16.94;102003.59;6238142;23;20491;-93
2023/06/03 10:50:43;;;;;;;2.40;1.05;;;;;;;30.48;17.43;102006.59;6213863;23;20008;-93
2023/06/03 10:53:36;;;;;;;2.40;1.05;;;;;;;30.92;16.90;102013.78;6241660;23;20012;-91
2023/06/03 10:56:01;;;;;;;2.67;0.80;;;;;;;30.20;17.15;102016.00;6239106;23;20019;-92
2023/06/03 10:58:28;;;;;;;1.47;0.93;;;;;;;30.25;18.25;101994.53;6242885;23;20482;-92
2023/06/03 11:01:01;;;;;;;3.10;1.00;;;;;;;30.57;17.21;102010.19;6212527;23;20241;-92
2023/06/03 11:03:29;;;;;;;3.22;0.85;;;;;;;30.55;16.43;102001.34;6239474;23;20498;-93
2023/06/03 11:06:28;;;;;;;3.33;1.15;;;;;;;30.75;16.93;102007.41;6211551;23;20047;-92
2023/06/03 11:09:05;;;;;;;1.25;0.93;;;;;;;31.30;18.19;102004.16;6231693;23;20004;-92
2023/06/03 11:11:48;;;;;;;0.70;0.70;;;;;;;31.43;16.81;102003.63;6216008;23;20095;-93
2023/06/03 11:14:25;;;;;;;1.58;0.80;;;;;;;31.13;17.26;102000.50;6240371;23;20032;-91
2023/06/03 11:16:57;;;;;;;4.55;0.75;;;;;;;31.21;15.80;102002.38;6239189;23;20008;-91
2023/06/03 11:19:32;;;;;;;1.27;0.90;;;;;;;31.29;15.14;101991.50;6211970;23;20004;-92
2023/06/03 11:21:58;;;;;;;3.85;0.90;;;;;;;31.03;15.77;101997.06;6217986;23;20012;-92
2023/06/03 11:24:38;;;;;;;4.97;0.90;;;;;;;31.01;17.36;102010.06;6241174;23;20019;-92
2023/06/03 11:27:24;;;;;;;5.03;1.00;;;;;;;31.09;17.59;102022.84;6239611;23;20037;-92